createdAt,value
2018-09-02T00:00:07.876Z,15.14
2018-09-02T00:02:35.974Z,15.35
2018-09-02T00:05:04.058Z,15.26
2018-09-02T00:07:32.183Z,15.23
2018-09-02T00:10:00.307Z,14.90
2018-09-02T00:12:28.397Z,15.06
2018-09-02T00:14:56.460Z,14.69
2018-09-02T00:17:24.552Z,14.78
2018-09-02T00:19:52.643Z,14.69
2018-09-02T00:22:20.995Z,14.45
2018-09-02T00:24:49.104Z,14.71
2018-09-02T00:27:17.195Z,14.97
2018-09-02T00:29:45.256Z,15.04
2018-09-02T00:32:13.411Z,15.21
2018-09-02T00:34:41.536Z,15.09
2018-09-02T00:37:09.728Z,15.02
2018-09-02T00:39:37.820Z,15.28
2018-09-02T00:42:05.963Z,15.43
2018-09-02T00:44:34.065Z,15.57
2018-09-02T00:47:02.143Z,15.61
2018-09-02T00:49:30.261Z,15.78
2018-09-02T00:51:58.329Z,15.78
2018-09-02T00:54:26.456Z,15.84
2018-09-02T00:56:54.604Z,15.89
2018-09-02T00:59:22.664Z,15.91
2018-09-02T01:01:50.756Z,15.89
2018-09-02T01:04:18.862Z,15.88
2018-09-02T01:06:46.946Z,16.00
2018-09-02T01:09:15.020Z,16.01
2018-09-02T01:11:43.088Z,15.95
2018-09-02T01:14:11.162Z,16.05
2018-09-02T01:16:39.214Z,15.92
2018-09-02T01:19:07.289Z,15.88
2018-09-02T01:21:35.367Z,15.84
2018-09-02T01:24:03.447Z,15.77
2018-09-02T01:26:31.544Z,15.89
2018-09-02T01:28:59.619Z,15.90
2018-09-02T01:31:27.731Z,15.80
2018-09-02T01:33:55.806Z,15.84
2018-09-02T01:36:23.850Z,15.83
2018-09-02T01:38:51.916Z,15.77
2018-09-02T01:41:19.999Z,15.75
2018-09-02T01:43:48.091Z,15.80
2018-09-02T01:46:16.171Z,15.85
2018-09-02T01:48:44.275Z,15.81
2018-09-02T01:51:12.341Z,15.79
2018-09-02T01:53:40.432Z,15.82
2018-09-02T01:56:08.506Z,15.79
2018-09-02T01:58:36.664Z,15.86
2018-09-02T02:01:04.702Z,15.94
2018-09-02T02:03:32.828Z,15.91
2018-09-02T02:06:00.929Z,15.89
2018-09-02T02:08:29.064Z,15.87
2018-09-02T02:10:57.139Z,15.85
2018-09-02T02:13:25.283Z,15.91
2018-09-02T02:15:53.350Z,15.89
2018-09-02T02:18:21.413Z,15.84
2018-09-02T02:20:49.529Z,15.80
2018-09-02T02:23:17.594Z,15.78
2018-09-02T02:25:45.692Z,15.81
2018-09-02T02:28:13.771Z,15.77
2018-09-02T02:30:41.843Z,15.91
2018-09-02T02:33:09.922Z,15.75
2018-09-02T02:35:38.058Z,15.75
2018-09-02T02:38:06.119Z,15.80
2018-09-02T02:40:34.182Z,15.75
2018-09-02T02:43:02.256Z,15.76
2018-09-02T02:45:30.337Z,15.78
2018-09-02T02:47:58.399Z,15.84
2018-09-02T02:50:26.467Z,15.79
2018-09-02T02:53:00.090Z,15.75
2018-09-02T02:55:28.172Z,15.79
2018-09-02T02:57:56.241Z,15.76
2018-09-02T03:00:24.317Z,15.73
2018-09-02T03:02:52.393Z,15.78
2018-09-02T03:05:20.488Z,15.78
2018-09-02T03:07:48.576Z,15.75
2018-09-02T03:10:16.744Z,15.78
2018-09-02T03:12:44.812Z,15.81
2018-09-02T03:15:12.915Z,15.78
2018-09-02T03:17:40.983Z,15.83
2018-09-02T03:20:09.059Z,15.87
2018-09-02T03:22:37.194Z,15.85
2018-09-02T03:25:05.331Z,15.92
2018-09-02T03:27:33.419Z,15.96
2018-09-02T03:30:01.512Z,15.93
2018-09-02T03:32:29.576Z,15.95
2018-09-02T03:34:57.679Z,15.98
2018-09-02T03:37:26.817Z,15.97
2018-09-02T03:39:54.899Z,15.97
2018-09-02T03:42:22.977Z,16.03
2018-09-02T03:44:51.059Z,16.06
2018-09-02T03:47:19.146Z,16.11
2018-09-02T03:49:47.244Z,16.20
2018-09-02T03:52:15.424Z,16.16
2018-09-02T03:54:43.504Z,16.15
2018-09-02T03:57:11.655Z,16.14
2018-09-02T03:59:39.686Z,16.25
2018-09-02T04:02:07.757Z,16.34
2018-09-02T04:04:35.828Z,16.18
2018-09-02T04:07:03.931Z,16.28
2018-09-02T04:09:32.023Z,16.27
2018-09-02T04:12:00.118Z,16.34
2018-09-02T04:14:28.174Z,16.36
2018-09-02T04:16:56.252Z,16.29
2018-09-02T04:19:24.311Z,16.36
2018-09-02T04:21:52.444Z,16.43
2018-09-02T04:24:20.506Z,16.35
2018-09-02T04:26:48.592Z,16.40
2018-09-02T04:29:16.682Z,16.40
2018-09-02T04:31:44.761Z,16.44
2018-09-02T04:34:12.849Z,16.47
2018-09-02T04:36:40.927Z,16.47
2018-09-02T04:39:09.575Z,16.55
2018-09-02T04:41:38.088Z,16.50
2018-09-02T04:44:06.221Z,16.52
2018-09-02T04:46:34.286Z,16.53
2018-09-02T04:49:02.501Z,16.51
2018-09-02T04:51:30.571Z,16.56
2018-09-02T04:53:58.644Z,16.53
2018-09-02T04:56:26.733Z,16.60
2018-09-02T04:58:54.779Z,16.55
2018-09-02T05:01:22.884Z,16.52
2018-09-02T05:03:50.958Z,16.57
2018-09-02T05:06:19.060Z,16.58
2018-09-02T05:08:47.134Z,16.55
2018-09-02T05:11:15.203Z,16.60
2018-09-02T05:13:43.255Z,16.62
2018-09-02T05:16:11.371Z,16.73
2018-09-02T05:18:39.430Z,16.62
2018-09-02T05:21:07.609Z,16.59
2018-09-02T05:23:35.667Z,16.68
2018-09-02T05:26:03.764Z,16.60
2018-09-02T05:28:31.827Z,16.60
2018-09-02T05:30:59.921Z,16.62
2018-09-02T05:33:27.979Z,16.53
2018-09-02T05:35:56.059Z,16.45
2018-09-02T05:38:24.150Z,16.48
2018-09-02T05:40:52.192Z,16.42
2018-09-02T05:43:20.352Z,16.51
2018-09-02T05:45:48.436Z,16.52
2018-09-02T05:48:16.548Z,16.55
2018-09-02T05:50:44.612Z,16.58
2018-09-02T05:53:12.721Z,16.60
2018-09-02T05:55:40.834Z,16.57
2018-09-02T05:58:09.056Z,16.57
2018-09-02T06:00:37.216Z,16.60
2018-09-02T06:03:05.315Z,16.58
2018-09-02T06:05:33.437Z,16.54
2018-09-02T06:08:01.598Z,16.60
2018-09-02T06:10:29.715Z,16.62
2018-09-02T06:12:57.856Z,16.63
2018-09-02T06:15:25.944Z,16.70
2018-09-02T06:17:54.038Z,16.76
2018-09-02T06:20:22.184Z,16.75
2018-09-02T06:22:50.368Z,16.83
2018-09-02T06:25:18.456Z,16.92
2018-09-02T06:27:46.591Z,16.87
2018-09-02T06:30:14.791Z,16.94
2018-09-02T06:32:42.831Z,16.95
2018-09-02T06:35:10.916Z,16.97
2018-09-02T06:37:38.993Z,16.89
2018-09-02T06:40:07.228Z,16.92
2018-09-02T06:42:35.363Z,16.93
2018-09-02T06:45:03.487Z,17.08
2018-09-02T06:47:31.583Z,17.05
2018-09-02T06:49:59.677Z,17.19
2018-09-02T06:52:27.806Z,17.24
2018-09-02T06:54:55.900Z,17.19
2018-09-02T06:57:24.008Z,17.28
2018-09-02T06:59:52.150Z,17.28
2018-09-02T07:02:20.384Z,17.35
2018-09-02T07:04:48.522Z,17.32
2018-09-02T07:07:16.673Z,17.39
2018-09-02T07:09:44.727Z,17.42
2018-09-02T07:12:12.823Z,17.52
2018-09-02T07:14:40.948Z,17.55
2018-09-02T07:17:09.385Z,17.48
2018-09-02T07:19:37.445Z,17.53
2018-09-02T07:22:05.515Z,17.47
2018-09-02T07:24:33.628Z,17.47
2018-09-02T07:27:01.749Z,17.52
2018-09-02T07:29:29.864Z,17.60
2018-09-02T07:31:58.034Z,17.58
2018-09-02T07:34:26.151Z,17.61
2018-09-02T07:36:54.234Z,17.68
2018-09-02T07:39:22.407Z,17.79
2018-09-02T07:41:50.552Z,17.80
2018-09-02T07:44:18.669Z,17.85
2018-09-02T07:46:53.440Z,17.83
2018-09-02T07:49:21.532Z,17.89
2018-09-02T07:51:51.323Z,17.91
2018-09-02T07:54:19.560Z,18.05
2018-09-02T07:56:52.397Z,18.05
2018-09-02T07:59:20.663Z,18.22
2018-09-02T08:01:48.868Z,18.32
2018-09-02T08:04:17.072Z,18.44
2018-09-02T08:06:45.276Z,18.54
2018-09-02T08:09:16.874Z,18.56
2018-09-02T08:11:55.415Z,18.62
2018-09-02T08:14:32.035Z,18.69
2018-09-02T08:17:03.398Z,18.72
2018-09-02T08:19:31.669Z,18.74
2018-09-02T08:22:03.636Z,18.67
2018-09-02T08:24:34.386Z,18.76
2018-09-02T08:27:02.505Z,18.73
2018-09-02T08:29:30.629Z,18.83
2018-09-02T08:31:58.787Z,18.93
2018-09-02T08:34:26.965Z,18.99
2018-09-02T08:36:55.650Z,18.95
2018-09-02T08:39:24.745Z,18.95
2018-09-02T08:41:54.818Z,18.87
2018-09-02T08:44:23.331Z,18.95
2018-09-02T08:46:51.629Z,19.02
2018-09-02T08:49:20.372Z,19.02
2018-09-02T08:51:50.066Z,19.01
2018-09-02T08:54:20.187Z,19.03
2018-09-02T08:56:48.567Z,19.11
2018-09-02T08:59:18.103Z,19.23
2018-09-02T09:01:46.652Z,19.19
2018-09-02T09:04:15.558Z,19.31
2018-09-02T09:06:43.773Z,19.45
2018-09-02T09:09:40.737Z,19.42
2018-09-02T09:12:09.384Z,19.40
2018-09-02T09:14:40.469Z,19.43
2018-09-02T09:17:09.390Z,19.44
2018-09-02T09:19:45.011Z,19.47
2018-09-02T09:22:24.329Z,19.54
2018-09-02T09:24:55.226Z,19.59
2018-09-02T09:27:23.532Z,19.73
2018-09-02T09:29:51.958Z,19.96
2018-09-02T09:32:29.126Z,20.09
2018-09-02T09:34:57.827Z,20.14
2018-09-02T09:37:29.993Z,20.13
2018-09-02T09:40:02.321Z,20.10
2018-09-02T09:42:44.457Z,20.15
2018-09-02T09:45:13.523Z,20.21
2018-09-02T09:47:42.312Z,20.29
2018-09-02T09:50:11.462Z,20.30
2018-09-02T09:52:40.310Z,20.35
2018-09-02T09:55:11.062Z,20.48
2018-09-02T09:57:45.394Z,20.42
2018-09-02T10:00:23.031Z,20.44
2018-09-02T10:02:53.125Z,20.54
2018-09-02T10:05:23.835Z,20.60
2018-09-02T10:07:54.376Z,20.57
2018-09-02T10:10:23.100Z,20.49
2018-09-02T10:12:52.006Z,20.44
2018-09-02T10:15:20.379Z,20.39
2018-09-02T10:17:49.691Z,20.39
2018-09-02T10:20:19.030Z,20.40
2018-09-02T10:22:55.379Z,20.42
2018-09-02T10:25:24.028Z,20.41
2018-09-02T10:27:55.395Z,20.37
2018-09-02T10:30:27.537Z,20.37
2018-09-02T10:33:06.302Z,20.51
2018-09-02T10:35:41.065Z,20.47
2018-09-02T10:40:50.275Z,20.56
2018-09-02T10:43:18.627Z,20.56
2018-09-02T10:45:46.992Z,20.56
2018-09-02T10:48:15.636Z,20.54
2018-09-02T10:50:47.709Z,20.53
2018-09-02T10:53:16.238Z,20.53
2018-09-02T10:55:45.512Z,20.40
2018-09-02T10:58:13.871Z,20.47
2018-09-02T11:00:43.074Z,20.57
2018-09-02T11:03:11.401Z,20.61
2018-09-02T11:05:39.994Z,20.57
2018-09-02T11:08:15.269Z,20.52
2018-09-02T11:10:58.058Z,20.45
2018-09-02T11:13:26.466Z,20.48
2018-09-02T11:15:54.724Z,20.38
2018-09-02T11:18:23.361Z,20.49
2018-09-02T11:20:51.499Z,20.57
2018-09-02T11:23:19.600Z,20.50
2018-09-02T11:25:47.739Z,20.65
2018-09-02T11:28:16.008Z,20.65
2018-09-02T11:30:44.199Z,20.62
2018-09-02T11:33:12.381Z,20.53
2018-09-02T11:35:40.529Z,20.54
2018-09-02T11:38:08.634Z,20.65
2018-09-02T11:40:36.716Z,20.63
2018-09-02T11:43:04.991Z,20.62
2018-09-02T11:45:33.127Z,20.61
2018-09-02T11:48:01.210Z,20.69
2018-09-02T11:50:29.436Z,20.80
2018-09-02T11:53:02.910Z,20.79
2018-09-02T11:55:31.042Z,20.69
2018-09-02T11:57:59.202Z,20.72
2018-09-02T12:00:27.397Z,20.73
2018-09-02T12:02:56.514Z,20.75
2018-09-02T12:05:24.618Z,20.70
2018-09-02T12:07:52.948Z,20.79
2018-09-02T12:10:21.023Z,20.84
2018-09-02T12:12:49.260Z,20.87
2018-09-02T12:15:17.384Z,20.90
2018-09-02T12:17:45.485Z,21.05
2018-09-02T12:20:13.555Z,21.19
2018-09-02T12:22:41.661Z,21.25
2018-09-02T12:25:09.772Z,21.29
2018-09-02T12:27:37.876Z,21.37
2018-09-02T12:30:06.192Z,21.34
2018-09-02T12:32:34.285Z,21.29
2018-09-02T12:35:02.432Z,21.46
2018-09-02T12:37:30.503Z,21.41
2018-09-02T12:39:58.603Z,21.41
2018-09-02T12:42:26.700Z,21.49
2018-09-02T12:44:54.783Z,21.44
2018-09-02T12:47:22.869Z,21.49
2018-09-02T12:49:50.924Z,21.58
2018-09-02T12:52:19.018Z,21.47
2018-09-02T12:54:47.076Z,21.59
2018-09-02T12:57:15.164Z,21.59
2018-09-02T12:59:43.212Z,21.51
2018-09-02T13:02:12.087Z,21.50
2018-09-02T13:04:40.232Z,21.47
2018-09-02T13:07:08.339Z,21.40
2018-09-02T13:09:36.457Z,21.30
2018-09-02T13:12:04.598Z,21.17
2018-09-02T13:14:32.675Z,21.05
2018-09-02T13:17:00.904Z,21.30
2018-09-02T13:19:29.389Z,21.29
2018-09-02T13:21:58.914Z,21.32
2018-09-02T13:24:27.900Z,21.33
2018-09-02T13:26:57.519Z,21.31
2018-09-02T13:29:25.774Z,21.29
2018-09-02T13:31:54.151Z,21.21
2018-09-02T13:34:23.274Z,21.23
2018-09-02T13:36:52.356Z,21.21
2018-09-02T13:39:20.955Z,21.06
2018-09-02T13:41:53.380Z,20.91
2018-09-02T13:44:33.654Z,20.82
2018-09-02T13:47:06.184Z,20.87
2018-09-02T13:49:34.720Z,20.96
2018-09-02T13:52:03.236Z,21.04
2018-09-02T13:54:31.588Z,21.13
2018-09-02T13:56:59.833Z,21.12
2018-09-02T13:59:28.613Z,20.94
2018-09-02T14:01:57.005Z,20.87
2018-09-02T14:04:25.279Z,20.77
2018-09-02T14:06:54.662Z,20.78
2018-09-02T14:09:22.867Z,20.81
2018-09-02T14:11:51.339Z,20.76
2018-09-02T14:14:20.492Z,20.71
2018-09-02T14:16:49.164Z,20.70
2018-09-02T14:19:17.427Z,20.73
2018-09-02T14:21:45.636Z,20.66
2018-09-02T14:24:15.384Z,20.74
2018-09-02T14:26:43.665Z,20.65
2018-09-02T14:29:12.985Z,20.66
2018-09-02T14:31:41.310Z,20.65
2018-09-02T14:34:09.843Z,20.61
2018-09-02T14:36:38.170Z,20.62
2018-09-02T14:39:09.011Z,20.58
2018-09-02T14:41:37.914Z,20.66
2018-09-02T14:44:06.195Z,20.57
2018-09-02T14:46:34.540Z,20.70
2018-09-02T14:49:04.253Z,20.72
2018-09-02T14:51:33.829Z,20.65
2018-09-02T14:54:02.239Z,20.63
2018-09-02T14:56:30.533Z,20.70
2018-09-02T14:58:59.000Z,20.76
2018-09-02T15:01:35.936Z,20.84
2018-09-02T15:04:05.080Z,20.89
2018-09-02T15:06:35.284Z,20.75
2018-09-02T15:09:03.779Z,20.69
2018-09-02T15:11:31.883Z,20.59
2018-09-02T15:13:59.964Z,20.45
2018-09-02T15:16:28.041Z,20.42
2018-09-02T15:18:56.352Z,20.36
2018-09-02T15:21:24.685Z,20.30
2018-09-02T15:23:52.722Z,20.34
2018-09-02T15:26:20.819Z,20.29
2018-09-02T15:28:48.891Z,20.26
2018-09-02T15:31:16.994Z,20.30
2018-09-02T15:33:45.141Z,20.31
2018-09-02T15:36:13.296Z,20.27
2018-09-02T15:38:41.386Z,20.30
2018-09-02T15:41:09.463Z,20.33
2018-09-02T15:43:37.609Z,20.33
2018-09-02T15:46:05.843Z,20.31
2018-09-02T15:48:33.944Z,20.22
2018-09-02T15:51:02.065Z,20.22
2018-09-02T15:53:30.205Z,20.23
2018-09-02T15:55:58.305Z,20.22
2018-09-02T15:58:26.396Z,20.15
2018-09-02T16:00:54.559Z,20.11
2018-09-02T16:03:22.640Z,20.16
2018-09-02T16:05:50.728Z,20.14
2018-09-02T16:08:18.863Z,20.16
2018-09-02T16:10:46.936Z,20.17
2018-09-02T16:13:15.085Z,20.17
2018-09-02T16:15:43.218Z,20.15
2018-09-02T16:18:11.373Z,20.19
2018-09-02T16:20:39.516Z,20.10
2018-09-02T16:23:07.620Z,20.14
2018-09-02T16:25:35.764Z,20.13
2018-09-02T16:28:03.971Z,20.13
2018-09-02T16:30:32.064Z,20.10
2018-09-02T16:33:00.236Z,20.10
2018-09-02T16:35:28.324Z,20.06
2018-09-02T16:37:56.511Z,20.12
2018-09-02T16:40:24.654Z,20.02
2018-09-02T16:42:52.764Z,19.96
2018-09-02T16:45:20.907Z,19.88
2018-09-02T16:47:49.039Z,19.84
2018-09-02T16:50:17.230Z,19.87
2018-09-02T16:52:46.267Z,19.88
2018-09-02T16:55:14.552Z,19.94
2018-09-02T16:57:43.589Z,19.98
2018-09-02T17:00:18.062Z,20.04
2018-09-02T17:02:46.313Z,20.02
2018-09-02T17:05:22.550Z,19.94
2018-09-02T17:07:57.773Z,20.01
2018-09-02T17:10:30.948Z,19.91
2018-09-02T17:13:01.365Z,19.84
2018-09-02T17:15:30.539Z,19.90
2018-09-02T17:18:00.337Z,19.80
2018-09-02T17:20:32.429Z,19.79
2018-09-02T17:23:06.768Z,19.77
2018-09-02T17:25:38.489Z,19.71
2018-09-02T17:28:07.546Z,19.51
2018-09-02T17:30:38.034Z,19.61
2018-09-02T17:33:08.210Z,19.56
2018-09-02T17:35:36.569Z,19.51
2018-09-02T17:38:05.877Z,19.54
2018-09-02T17:40:42.274Z,19.57
2018-09-02T17:43:12.221Z,19.49
2018-09-02T17:45:43.956Z,19.56
2018-09-02T17:48:14.106Z,19.58
2018-09-02T17:50:43.236Z,19.50
2018-09-02T17:53:17.197Z,19.52
2018-09-02T17:55:45.647Z,19.50
2018-09-02T17:58:14.768Z,19.41
2018-09-02T18:00:45.738Z,19.31
2018-09-02T18:03:13.912Z,19.32
2018-09-02T18:05:43.089Z,19.26
2018-09-02T18:08:11.877Z,19.28
2018-09-02T18:10:40.917Z,19.22
2018-09-02T18:13:22.738Z,19.27
2018-09-02T18:18:30.882Z,19.24
2018-09-02T18:21:01.919Z,19.16
2018-09-02T18:23:30.869Z,19.18
2018-09-02T18:25:59.135Z,19.16
2018-09-02T18:28:42.978Z,19.16
2018-09-02T18:31:13.501Z,19.15
2018-09-02T18:33:41.886Z,19.11
2018-09-02T18:36:10.629Z,19.16
2018-09-02T18:38:50.118Z,19.16
2018-09-02T18:41:19.198Z,19.07
2018-09-02T18:43:47.540Z,19.03
2018-09-02T18:46:17.307Z,18.91
2018-09-02T18:48:45.532Z,18.93
2018-09-02T18:51:13.670Z,18.92
2018-09-02T18:53:42.737Z,18.99
2018-09-02T18:56:11.934Z,18.96
2018-09-02T18:58:40.230Z,18.96
2018-09-02T19:01:08.484Z,18.91
2018-09-02T19:03:36.785Z,18.92
2018-09-02T19:06:06.945Z,18.88
2018-09-02T19:08:38.770Z,18.83
2018-09-02T19:11:10.733Z,18.80
2018-09-02T19:13:43.007Z,18.75
2018-09-02T19:16:12.292Z,18.79
2018-09-02T19:18:41.330Z,18.83
2018-09-02T19:21:12.179Z,18.79
2018-09-02T19:26:37.088Z,18.67
2018-09-02T19:29:06.723Z,18.63
2018-09-02T19:31:44.482Z,18.76
2018-09-02T19:36:49.413Z,18.75
2018-09-02T19:39:18.669Z,18.74
2018-09-02T19:41:48.727Z,18.68
2018-09-02T19:44:26.708Z,18.64
2018-09-02T19:46:56.480Z,18.68
2018-09-02T19:49:28.936Z,18.66
2018-09-02T19:51:57.465Z,18.68
2018-09-02T19:54:26.052Z,18.58
2018-09-02T19:56:54.283Z,18.63
2018-09-02T19:59:22.438Z,18.57
2018-09-02T20:01:59.043Z,18.66
2018-09-02T20:04:31.352Z,18.62
2018-09-02T20:07:11.183Z,18.71
2018-09-02T20:09:40.352Z,18.68
2018-09-02T20:12:10.563Z,18.66
2018-09-02T20:14:40.705Z,18.71
2018-09-02T20:17:09.720Z,18.70
2018-09-02T20:19:41.839Z,18.61
2018-09-02T20:22:13.439Z,18.63
2018-09-02T20:24:51.759Z,18.62
2018-09-02T20:27:44.894Z,18.55
2018-09-02T20:30:20.075Z,18.50
2018-09-02T20:32:50.540Z,18.54
2018-09-02T20:35:21.946Z,18.53
2018-09-02T20:37:59.884Z,18.51
2018-09-02T20:40:33.204Z,18.51
2018-09-02T20:43:01.580Z,18.61
2018-09-02T20:45:33.156Z,18.59
2018-09-02T20:48:10.147Z,18.70
2018-09-02T20:50:38.390Z,18.63
2018-09-02T20:53:07.641Z,18.56
2018-09-02T20:55:36.115Z,18.49
2018-09-02T20:58:05.018Z,18.51
2018-09-02T21:00:33.623Z,18.54
2018-09-02T21:03:01.794Z,18.57
2018-09-02T21:05:30.154Z,18.51
2018-09-02T21:07:59.804Z,18.51
2018-09-02T21:10:27.975Z,18.44
2018-09-02T21:12:56.138Z,18.44
2018-09-02T21:15:24.841Z,18.39
2018-09-02T21:17:55.850Z,18.38
2018-09-02T21:20:24.078Z,18.41
2018-09-02T21:22:53.238Z,18.35
2018-09-02T21:25:21.492Z,18.37
2018-09-02T21:27:49.739Z,18.37
2018-09-02T21:30:19.021Z,18.26
2018-09-02T21:32:48.518Z,18.41
2018-09-02T21:35:17.036Z,18.37
2018-09-02T21:37:45.198Z,18.36
2018-09-02T21:40:13.608Z,18.38
2018-09-02T21:42:46.983Z,18.39
2018-09-02T21:45:15.159Z,18.40
2018-09-02T21:47:44.000Z,18.35
2018-09-02T21:50:19.351Z,18.32
2018-09-02T21:52:47.564Z,18.33
2018-09-02T21:55:16.330Z,18.27
2018-09-02T21:57:45.147Z,18.42
2018-09-02T22:00:17.332Z,18.43
2018-09-02T22:02:46.891Z,18.37
2018-09-02T22:05:15.898Z,18.42
2018-09-02T22:07:44.823Z,18.42
2018-09-02T22:10:13.391Z,18.44
2018-09-02T22:12:42.715Z,18.32
2018-09-02T22:15:11.529Z,18.39
2018-09-02T22:17:39.709Z,18.42
2018-09-02T22:20:08.278Z,18.43
2018-09-02T22:22:36.540Z,18.40
2018-09-02T22:25:05.480Z,18.46
2018-09-02T22:27:34.304Z,18.61
2018-09-02T22:30:05.567Z,18.60
2018-09-02T22:32:33.879Z,18.48
2018-09-02T22:35:02.059Z,18.45
2018-09-02T22:37:30.293Z,18.45
2018-09-02T22:39:58.474Z,18.55
2018-09-02T22:42:26.988Z,18.43
2018-09-02T22:44:55.777Z,18.44
2018-09-02T22:47:25.175Z,18.47
2018-09-02T22:49:54.165Z,18.41
2018-09-02T22:52:22.433Z,18.42
2018-09-02T22:55:04.093Z,18.46
2018-09-02T22:57:33.675Z,18.52
2018-09-02T23:00:02.009Z,18.58
2018-09-02T23:02:30.965Z,18.52
2018-09-02T23:04:59.995Z,18.64
2018-09-02T23:07:29.686Z,18.60
2018-09-02T23:09:57.828Z,18.60
2018-09-02T23:12:26.314Z,18.56
2018-09-02T23:14:54.595Z,18.54
2018-09-02T23:17:22.896Z,18.57
2018-09-02T23:20:11.805Z,18.55
2018-09-02T23:22:44.234Z,18.53
2018-09-02T23:25:16.193Z,18.45
2018-09-02T23:27:45.404Z,18.35
2018-09-02T23:30:14.299Z,18.42
2018-09-02T23:32:44.055Z,18.48
2018-09-02T23:35:14.169Z,18.48
2018-09-02T23:37:44.813Z,18.53
2018-09-02T23:40:14.498Z,18.48
2018-09-02T23:42:42.714Z,18.52
2018-09-02T23:45:11.049Z,18.38
2018-09-02T23:47:39.137Z,18.29
2018-09-02T23:50:07.240Z,18.32
2018-09-02T23:52:35.404Z,18.27
2018-09-02T23:55:03.500Z,18.33
2018-09-02T23:57:31.611Z,18.34
